createdAt,value
2018-06-11T00:00:59.070Z,934.70
2018-06-11T00:01:59.074Z,934.68
2018-06-11T00:02:59.077Z,934.67
2018-06-11T00:03:59.081Z,934.67
2018-06-11T00:04:59.083Z,934.66
2018-06-11T00:05:59.088Z,934.67
2018-06-11T00:06:59.089Z,934.65
2018-06-11T00:07:59.094Z,934.68
2018-06-11T00:08:59.096Z,934.67
2018-06-11T00:09:59.098Z,934.63
2018-06-11T00:10:59.103Z,934.64
2018-06-11T00:11:59.106Z,934.64
2018-06-11T00:12:59.107Z,934.58
2018-06-11T00:13:59.113Z,934.60
2018-06-11T00:14:59.115Z,934.58
2018-06-11T00:15:59.117Z,934.62
2018-06-11T00:16:59.119Z,934.61
2018-06-11T00:17:59.127Z,934.62
2018-06-11T00:18:59.127Z,934.61
2018-06-11T00:19:59.130Z,934.63
2018-06-11T00:20:59.132Z,934.63
2018-06-11T00:21:59.136Z,934.55
2018-06-11T00:22:59.149Z,934.54
2018-06-11T00:23:59.141Z,934.56
2018-06-11T00:24:59.143Z,934.56
2018-06-11T00:25:59.146Z,934.57
2018-06-11T00:26:59.150Z,934.55
2018-06-11T00:27:59.153Z,934.54
2018-06-11T00:28:59.155Z,934.57
2018-06-11T00:29:59.163Z,934.60
2018-06-11T00:30:59.162Z,934.57
2018-06-11T00:31:59.167Z,934.58
2018-06-11T00:32:59.167Z,934.60
2018-06-11T00:33:59.170Z,934.61
2018-06-11T00:34:59.173Z,934.61
2018-06-11T00:35:59.179Z,934.63
2018-06-11T00:36:59.178Z,934.65
2018-06-11T00:37:59.182Z,934.63
2018-06-11T00:38:59.186Z,934.64
2018-06-11T00:39:59.189Z,934.64
2018-06-11T00:40:59.190Z,934.68
2018-06-11T00:41:59.193Z,934.68
2018-06-11T00:42:59.197Z,934.63
2018-06-11T00:43:59.199Z,934.67
2018-06-11T00:44:59.203Z,934.66
2018-06-11T00:45:59.205Z,934.65
2018-06-11T00:46:59.210Z,934.69
2018-06-11T00:47:59.212Z,934.70
2018-06-11T00:48:59.213Z,934.72
2018-06-11T00:49:59.217Z,934.69
2018-06-11T00:50:59.221Z,934.70
2018-06-11T00:51:59.223Z,934.69
2018-06-11T00:52:59.225Z,934.72
2018-06-11T00:53:59.231Z,934.72
2018-06-11T00:54:59.234Z,934.72
2018-06-11T00:55:59.235Z,934.69
2018-06-11T00:56:59.237Z,934.71
2018-06-11T00:57:59.240Z,934.71
2018-06-11T00:58:59.243Z,934.72
2018-06-11T00:59:59.247Z,934.74
2018-06-11T01:00:59.247Z,934.74
2018-06-11T01:01:59.252Z,934.76
2018-06-11T01:02:59.257Z,934.77
2018-06-11T01:03:59.258Z,934.77
2018-06-11T01:04:59.260Z,934.77
2018-06-11T01:05:59.263Z,934.73
2018-06-11T01:06:59.265Z,934.73
2018-06-11T01:07:59.269Z,934.70
2018-06-11T01:08:59.271Z,934.68
2018-06-11T01:09:59.275Z,934.69
2018-06-11T01:10:59.281Z,934.68
2018-06-11T01:11:59.279Z,934.66
2018-06-11T01:12:59.280Z,934.67
2018-06-11T01:13:59.286Z,934.65
2018-06-11T01:14:59.289Z,934.65
2018-06-11T01:15:59.290Z,934.63
2018-06-11T01:16:59.293Z,934.62
2018-06-11T01:17:59.295Z,934.64
2018-06-11T01:18:59.302Z,934.67
2018-06-11T01:19:59.301Z,934.66
2018-06-11T01:20:59.304Z,934.63
2018-06-11T01:21:59.306Z,934.65
2018-06-11T01:22:59.311Z,934.61
2018-06-11T01:23:59.312Z,934.60
2018-06-11T01:24:59.315Z,934.62
2018-06-11T01:25:59.317Z,934.60
2018-06-11T01:26:59.321Z,934.56
2018-06-11T01:27:59.324Z,934.58
2018-06-11T01:28:59.325Z,934.62
2018-06-11T01:29:59.328Z,934.58
2018-06-11T01:30:59.331Z,934.56
2018-06-11T01:31:59.335Z,934.56
2018-06-11T01:32:59.336Z,934.52
2018-06-11T01:33:59.340Z,934.50
2018-06-11T01:34:59.342Z,934.46
2018-06-11T01:35:59.346Z,934.48
2018-06-11T01:36:59.346Z,934.48
2018-06-11T01:37:59.350Z,934.48
2018-06-11T01:38:59.356Z,934.48
2018-06-11T01:39:59.356Z,934.48
2018-06-11T01:40:59.357Z,934.46
2018-06-11T01:41:59.362Z,934.47
2018-06-11T01:42:59.363Z,934.44
2018-06-11T01:43:59.367Z,934.47
2018-06-11T01:44:59.373Z,934.48
2018-06-11T01:45:59.372Z,934.46
2018-06-11T01:46:59.374Z,934.50
2018-06-11T01:47:59.377Z,934.47
2018-06-11T01:48:59.378Z,934.47
2018-06-11T01:49:59.386Z,934.46
2018-06-11T01:50:59.386Z,934.48
2018-06-11T01:51:59.389Z,934.49
2018-06-11T01:52:59.389Z,934.48
2018-06-11T01:53:59.392Z,934.48
2018-06-11T01:54:59.395Z,934.46
2018-06-11T01:55:59.399Z,934.41
2018-06-11T01:56:59.400Z,934.41
2018-06-11T01:57:59.403Z,934.37
2018-06-11T01:58:59.407Z,934.40
2018-06-11T01:59:59.412Z,934.39
2018-06-11T02:00:59.411Z,934.34
2018-06-11T02:01:59.416Z,934.35
2018-06-11T02:02:59.418Z,934.31
2018-06-11T02:03:59.419Z,934.34
2018-06-11T02:04:59.422Z,934.33
2018-06-11T02:05:59.423Z,934.31
2018-06-11T02:06:59.428Z,934.33
2018-06-11T02:07:59.430Z,934.30
2018-06-11T02:08:59.432Z,934.29
2018-06-11T02:09:59.435Z,934.26
2018-06-11T02:10:59.438Z,934.24
2018-06-11T02:11:59.441Z,934.19
2018-06-11T02:12:59.443Z,934.21
2018-06-11T02:13:59.445Z,934.23
2018-06-11T02:14:59.448Z,934.24
2018-06-11T02:15:59.450Z,934.21
2018-06-11T02:16:59.452Z,934.19
2018-06-11T02:17:59.455Z,934.20
2018-06-11T02:18:59.461Z,934.14
2018-06-11T02:19:59.463Z,934.16
2018-06-11T02:20:59.464Z,934.15
2018-06-11T02:21:59.471Z,934.12
2018-06-11T02:22:59.469Z,934.12
2018-06-11T02:23:59.472Z,934.10
2018-06-11T02:24:59.474Z,934.11
2018-06-11T02:25:59.476Z,934.09
2018-06-11T02:26:59.480Z,934.10
2018-06-11T02:27:59.482Z,934.09
2018-06-11T02:28:59.483Z,934.09
2018-06-11T02:29:59.486Z,934.12
2018-06-11T02:30:59.491Z,934.11
2018-06-11T02:31:59.491Z,934.09
2018-06-11T02:32:59.495Z,934.08
2018-06-11T02:33:59.496Z,934.05
2018-06-11T02:34:59.498Z,934.04
2018-06-11T02:35:59.502Z,934.01
2018-06-11T02:36:59.503Z,934.00
2018-06-11T02:37:59.507Z,933.93
2018-06-11T02:38:59.559Z,933.92
2018-06-11T02:39:59.512Z,933.90
2018-06-11T02:40:59.514Z,933.92
2018-06-11T02:41:59.517Z,933.91
2018-06-11T02:42:59.518Z,933.93
2018-06-11T02:43:59.522Z,933.92
2018-06-11T02:44:59.523Z,933.91
2018-06-11T02:45:59.526Z,933.95
2018-06-11T02:46:59.528Z,933.94
2018-06-11T02:47:59.531Z,933.92
2018-06-11T02:48:59.533Z,933.90
2018-06-11T02:49:59.536Z,933.88
2018-06-11T02:50:59.539Z,933.86
2018-06-11T02:51:59.541Z,933.81
2018-06-11T02:52:59.543Z,933.85
2018-06-11T02:53:59.544Z,933.85
2018-06-11T02:54:59.547Z,933.83
2018-06-11T02:55:59.551Z,933.82
2018-06-11T02:56:59.552Z,933.83
2018-06-11T02:57:59.554Z,933.87
2018-06-11T02:58:59.556Z,933.82
2018-06-11T02:59:59.560Z,933.83
2018-06-11T03:00:59.561Z,933.81
2018-06-11T03:01:59.564Z,933.81
2018-06-11T03:02:59.567Z,933.83
2018-06-11T03:03:59.570Z,933.85
2018-06-11T03:04:59.570Z,933.84
2018-06-11T03:05:59.574Z,933.83
2018-06-11T03:06:59.575Z,933.84
2018-06-11T03:07:59.581Z,933.87
2018-06-11T03:08:59.579Z,933.88
2018-06-11T03:09:59.582Z,933.84
2018-06-11T03:10:59.587Z,933.83
2018-06-11T03:11:59.589Z,933.79
2018-06-11T03:12:59.590Z,933.83
2018-06-11T03:13:59.593Z,933.81
2018-06-11T03:14:59.595Z,933.79
2018-06-11T03:15:59.599Z,933.77
2018-06-11T03:16:59.599Z,933.77
2018-06-11T03:17:59.603Z,933.79
2018-06-11T03:18:59.614Z,933.81
2018-06-11T03:19:59.609Z,933.82
2018-06-11T03:20:59.608Z,933.81
2018-06-11T03:21:59.612Z,933.78
2018-06-11T03:22:59.615Z,933.77
2018-06-11T03:23:59.617Z,933.72
2018-06-11T03:24:59.619Z,933.76
2018-06-11T03:25:59.622Z,933.71
2018-06-11T03:26:59.625Z,933.69
2018-06-11T03:27:59.628Z,933.71
2018-06-11T03:28:59.631Z,933.70
2018-06-11T03:29:59.630Z,933.67
2018-06-11T03:30:59.633Z,933.68
2018-06-11T03:31:59.636Z,933.65
2018-06-11T03:32:59.638Z,933.59
2018-06-11T03:33:59.641Z,933.63
2018-06-11T03:34:59.644Z,933.60
2018-06-11T03:35:59.646Z,933.67
2018-06-11T03:36:59.648Z,933.68
2018-06-11T03:37:59.653Z,933.70
2018-06-11T03:38:59.653Z,933.67
2018-06-11T03:39:59.655Z,933.67
2018-06-11T03:40:59.657Z,933.67
2018-06-11T03:41:59.661Z,933.66
2018-06-11T03:42:59.661Z,933.66
2018-06-11T03:43:59.664Z,933.66
2018-06-11T03:44:59.668Z,933.68
2018-06-11T03:45:59.669Z,933.63
2018-06-11T03:46:59.672Z,933.65
2018-06-11T03:47:59.674Z,933.68
2018-06-11T03:48:59.675Z,933.67
2018-06-11T03:49:59.679Z,933.69
2018-06-11T03:50:59.681Z,933.65
2018-06-11T03:51:59.684Z,933.66
2018-06-11T03:52:59.686Z,933.63
2018-06-11T03:53:59.689Z,933.61
2018-06-11T03:54:59.692Z,933.61
2018-06-11T03:55:59.693Z,933.62
2018-06-11T03:56:59.695Z,933.58
2018-06-11T03:57:59.697Z,933.58
2018-06-11T03:58:59.700Z,933.54
2018-06-11T03:59:59.703Z,933.54
2018-06-11T04:00:59.706Z,933.54
2018-06-11T04:01:59.707Z,933.55
2018-06-11T04:02:59.711Z,933.53
2018-06-11T04:03:59.712Z,933.48
2018-06-11T04:04:59.714Z,933.51
2018-06-11T04:05:59.717Z,933.47
2018-06-11T04:06:59.724Z,933.48
2018-06-11T04:07:59.722Z,933.50
2018-06-11T04:08:59.723Z,933.45
2018-06-11T04:09:59.726Z,933.51
2018-06-11T04:10:59.778Z,933.46
2018-06-11T04:11:59.733Z,933.44
2018-06-11T04:12:59.735Z,933.48
2018-06-11T04:13:59.736Z,933.49
2018-06-11T04:14:59.738Z,933.50
2018-06-11T04:15:59.741Z,933.49
2018-06-11T04:16:59.745Z,933.48
2018-06-11T04:17:59.747Z,933.44
2018-06-11T04:18:59.753Z,933.44
2018-06-11T04:19:59.753Z,933.43
2018-06-11T04:20:59.754Z,933.43
2018-06-11T04:21:59.759Z,933.42
2018-06-11T04:22:59.760Z,933.42
2018-06-11T04:23:59.762Z,933.41
2018-06-11T04:24:59.764Z,933.43
2018-06-11T04:25:59.767Z,933.44
2018-06-11T04:26:59.770Z,933.42
2018-06-11T04:27:59.773Z,933.38
2018-06-11T04:28:59.774Z,933.40
2018-06-11T04:29:59.778Z,933.40
2018-06-11T04:30:59.781Z,933.39
2018-06-11T04:31:59.783Z,933.38
2018-06-11T04:32:59.785Z,933.42
2018-06-11T04:33:59.788Z,933.45
2018-06-11T04:34:59.790Z,933.47
2018-06-11T04:35:59.793Z,933.44
2018-06-11T04:36:59.794Z,933.46
2018-06-11T04:37:59.799Z,933.45
2018-06-11T04:38:59.801Z,933.45
2018-06-11T04:39:59.803Z,933.44
2018-06-11T04:40:59.805Z,933.46
2018-06-11T04:41:59.809Z,933.47
2018-06-11T04:42:59.812Z,933.49
2018-06-11T04:43:59.814Z,933.47
2018-06-11T04:44:59.816Z,933.48
2018-06-11T04:45:59.822Z,933.52
2018-06-11T04:46:59.822Z,933.49
2018-06-11T04:47:59.826Z,933.50
2018-06-11T04:48:59.827Z,933.49
2018-06-11T04:49:59.830Z,933.51
2018-06-11T04:50:59.835Z,933.48
2018-06-11T04:51:59.836Z,933.48
2018-06-11T04:52:59.839Z,933.47
2018-06-11T04:53:59.840Z,933.42
2018-06-11T04:54:59.844Z,933.43
2018-06-11T04:55:59.848Z,933.39
2018-06-11T04:56:59.849Z,933.37
2018-06-11T04:57:59.853Z,933.36
2018-06-11T04:58:59.856Z,933.34
2018-06-11T04:59:59.858Z,933.33
2018-06-11T05:00:59.859Z,933.31
2018-06-11T05:01:59.866Z,933.28
2018-06-11T05:02:59.867Z,933.30
2018-06-11T05:03:59.869Z,933.28
2018-06-11T05:04:59.871Z,933.28
2018-06-11T05:05:59.875Z,933.26
2018-06-11T05:06:59.877Z,933.25
2018-06-11T05:07:59.926Z,933.23
2018-06-11T05:08:59.884Z,933.23
2018-06-11T05:09:59.904Z,933.23
2018-06-11T05:10:59.891Z,933.23
2018-06-11T05:11:59.894Z,933.23
2018-06-11T05:12:59.895Z,933.21
2018-06-11T05:13:59.898Z,933.19
2018-06-11T05:14:59.900Z,933.23
2018-06-11T05:15:59.904Z,933.18
2018-06-11T05:16:59.906Z,933.20
2018-06-11T05:17:59.909Z,933.18
2018-06-11T05:18:59.914Z,933.17
2018-06-11T05:19:59.916Z,933.09
2018-06-11T05:20:59.919Z,933.11
2018-06-11T05:21:59.922Z,933.07
2018-06-11T05:22:59.924Z,933.07
2018-06-11T05:23:59.928Z,933.03
2018-06-11T05:24:59.933Z,933.00
2018-06-11T05:25:59.940Z,932.99
2018-06-11T05:26:59.938Z,932.95
2018-06-11T05:27:59.948Z,932.92
2018-06-11T05:28:59.944Z,932.90
2018-06-11T05:29:59.946Z,932.85
2018-06-11T05:30:59.951Z,932.84
2018-06-11T05:31:59.953Z,932.80
2018-06-11T05:32:59.956Z,932.86
2018-06-11T05:33:59.961Z,932.84
2018-06-11T05:34:59.965Z,932.85
2018-06-11T05:35:59.967Z,932.83
2018-06-11T05:39:00.417Z,932.85
2018-06-11T05:40:00.425Z,932.88
2018-06-11T05:41:00.424Z,932.86
2018-06-11T05:42:00.485Z,932.88
2018-06-11T05:43:00.458Z,932.88
2018-06-11T05:44:00.507Z,932.90
2018-06-11T05:45:00.437Z,932.88
2018-06-11T05:46:00.440Z,932.90
2018-06-11T05:47:00.534Z,932.91
2018-06-11T05:48:00.527Z,932.88
2018-06-11T05:49:00.517Z,932.90
2018-06-11T05:50:00.543Z,932.96
2018-06-11T05:51:00.509Z,932.91
2018-06-11T05:52:00.480Z,932.96
2018-06-11T05:53:00.516Z,932.98
2018-06-11T05:54:00.504Z,933.00
2018-06-11T05:55:00.665Z,933.00
2018-06-11T05:56:00.476Z,933.02
2018-06-11T05:57:00.480Z,933.05
2018-06-11T05:58:00.483Z,933.08
2018-06-11T05:59:00.487Z,933.12
2018-06-11T06:00:00.490Z,933.16
2018-06-11T06:01:00.494Z,933.19
2018-06-11T06:02:00.497Z,933.16
2018-06-11T06:03:00.502Z,933.19
2018-06-11T06:04:00.564Z,933.18
2018-06-11T06:05:00.515Z,933.17
2018-06-11T06:06:00.514Z,933.14
2018-06-11T06:07:00.517Z,933.15
2018-06-11T06:08:00.556Z,933.15
2018-06-11T06:09:00.544Z,933.17
2018-06-11T06:10:00.544Z,933.15
2018-06-11T06:11:00.534Z,933.13
2018-06-11T06:12:00.537Z,933.11
2018-06-11T06:13:00.541Z,933.10
2018-06-11T06:14:00.550Z,933.08
2018-06-11T06:15:00.550Z,933.09
2018-06-11T06:16:00.553Z,933.04
2018-06-11T06:17:00.689Z,933.07
2018-06-11T06:18:00.700Z,933.08
2018-06-11T06:19:00.604Z,933.09
2018-06-11T06:20:00.667Z,933.07
2018-06-11T06:21:00.656Z,933.08
2018-06-11T06:22:00.624Z,933.12
2018-06-11T06:23:00.582Z,933.08
2018-06-11T06:24:00.588Z,933.11
2018-06-11T06:25:00.590Z,933.13
2018-06-11T06:26:00.594Z,933.16
2018-06-11T06:27:00.599Z,933.19
2018-06-11T06:28:00.604Z,933.19
2018-06-11T06:29:00.866Z,933.23
2018-06-11T06:30:00.637Z,933.19
2018-06-11T06:31:00.619Z,933.22
2018-06-11T06:32:00.627Z,933.22
2018-06-11T06:33:00.626Z,933.25
2018-06-11T06:34:00.632Z,933.29
2018-06-11T06:35:00.639Z,933.29
2018-06-11T06:36:00.641Z,933.30
2018-06-11T06:37:00.646Z,933.35
2018-06-11T06:38:00.649Z,933.35
2018-06-11T06:39:00.654Z,933.38
2018-06-11T06:40:00.657Z,933.39
2018-06-11T06:41:00.668Z,933.46
2018-06-11T06:42:00.669Z,933.47
2018-06-11T06:43:00.828Z,933.49
2018-06-11T06:44:00.771Z,933.49
2018-06-11T06:45:00.682Z,933.53
2018-06-11T06:46:00.747Z,933.50
2018-06-11T06:47:00.763Z,933.53
2018-06-11T06:48:00.723Z,933.53
2018-06-11T06:49:00.727Z,933.56
2018-06-11T06:50:00.722Z,933.50
2018-06-11T06:51:00.852Z,933.55
2018-06-11T06:52:00.715Z,933.49
2018-06-11T06:53:00.720Z,933.53
2018-06-11T06:54:00.725Z,933.51
2018-06-11T06:55:00.731Z,933.52
2018-06-11T06:56:00.737Z,933.51
2018-06-11T06:57:00.740Z,933.47
2018-06-11T06:58:00.746Z,933.50
2018-06-11T06:59:00.751Z,933.49
2018-06-11T07:00:00.851Z,933.49
2018-06-11T07:01:00.764Z,933.52
2018-06-11T07:02:01.037Z,933.44
2018-06-11T07:03:00.770Z,933.46
2018-06-11T07:04:00.775Z,933.47
2018-06-11T07:05:00.782Z,933.53
2018-06-11T07:06:00.787Z,933.49
2018-06-11T07:07:00.856Z,933.52
2018-06-11T07:08:00.821Z,933.49
2018-06-11T07:09:00.804Z,933.47
2018-06-11T07:10:00.811Z,933.45
2018-06-11T07:11:00.833Z,933.49
2018-06-11T07:12:00.820Z,933.48
2018-06-11T07:13:00.826Z,933.46
2018-06-11T07:14:00.835Z,933.47
2018-06-11T07:15:00.836Z,933.44
2018-06-11T07:16:00.841Z,933.44
2018-06-11T07:17:00.884Z,933.49
2018-06-11T07:18:00.863Z,933.47
2018-06-11T07:19:00.873Z,933.48
2018-06-11T07:20:00.898Z,933.47
2018-06-11T07:21:00.911Z,933.52
2018-06-11T07:22:00.884Z,933.45
2018-06-11T07:23:00.885Z,933.43
2018-06-11T07:24:00.984Z,933.42
2018-06-11T07:25:00.893Z,933.47
2018-06-11T07:26:00.898Z,933.44
2018-06-11T07:27:00.922Z,933.45
2018-06-11T07:28:00.910Z,933.51
2018-06-11T07:29:00.916Z,933.62
2018-06-11T07:30:00.921Z,933.69
2018-06-11T07:31:00.928Z,933.68
2018-06-11T07:32:00.935Z,933.64
2018-06-11T07:33:00.943Z,933.77
2018-06-11T07:34:00.949Z,933.73
2018-06-11T07:35:01.011Z,933.72
2018-06-11T07:36:01.044Z,933.72
2018-06-11T07:37:00.975Z,933.74
2018-06-11T07:38:00.985Z,933.68
2018-06-11T07:39:00.993Z,933.67
2018-06-11T07:40:01.004Z,933.68
2018-06-11T07:41:01.051Z,933.58
2018-06-11T07:42:01.024Z,933.58
2018-06-11T07:43:01.034Z,933.55
2018-06-11T07:44:01.050Z,933.54
2018-06-11T07:45:01.055Z,933.56
2018-06-11T07:46:01.066Z,933.54
2018-06-11T07:47:01.078Z,933.56
2018-06-11T07:48:01.194Z,933.57
2018-06-11T07:49:01.134Z,933.62
2018-06-11T07:50:01.169Z,933.66
2018-06-11T07:51:01.237Z,933.70
2018-06-11T07:52:01.235Z,933.63
2018-06-11T07:53:01.147Z,933.59
2018-06-11T07:54:01.158Z,933.58
2018-06-11T07:55:01.169Z,933.56
2018-06-11T07:56:01.182Z,933.57
2018-06-11T07:57:01.193Z,933.60
2018-06-11T07:58:01.205Z,933.64
2018-06-11T07:59:01.241Z,933.69
2018-06-11T08:00:01.281Z,933.76
2018-06-11T08:01:01.242Z,933.77
2018-06-11T08:02:01.255Z,933.81
2018-06-11T08:03:01.273Z,933.70
2018-06-11T08:04:01.280Z,933.74
2018-06-11T08:05:01.309Z,933.71
2018-06-11T08:06:01.307Z,933.71
2018-06-11T08:07:01.320Z,933.68
2018-06-11T08:08:01.333Z,933.72
2018-06-11T08:09:01.348Z,933.71
2018-06-11T08:10:01.362Z,933.68
2018-06-11T08:11:01.558Z,933.64
2018-06-11T08:12:01.390Z,933.65
2018-06-11T08:13:01.405Z,933.67
2018-06-11T08:14:01.419Z,933.62
2018-06-11T08:15:01.435Z,933.63
2018-06-11T08:16:01.448Z,933.62
2018-06-11T08:17:01.463Z,933.63
2018-06-11T08:18:01.525Z,933.65
2018-06-11T08:19:01.549Z,933.64
2018-06-11T08:20:01.612Z,933.63
2018-06-11T08:21:01.610Z,933.63
2018-06-11T08:22:01.665Z,933.60
2018-06-11T08:23:01.565Z,933.62
2018-06-11T08:24:01.570Z,933.60
2018-06-11T08:25:01.585Z,933.63
2018-06-11T08:26:01.600Z,933.60
2018-06-11T08:27:01.710Z,933.63
2018-06-11T08:28:01.636Z,933.65
2018-06-11T08:29:01.646Z,933.62
2018-06-11T08:30:01.666Z,933.59
2018-06-11T08:31:01.691Z,933.63
2018-06-11T08:32:01.693Z,933.58
2018-06-11T08:33:01.710Z,933.57
2018-06-11T08:34:01.727Z,933.52
2018-06-11T08:35:01.742Z,933.55
2018-06-11T08:36:02.278Z,933.48
2018-06-11T08:37:01.775Z,933.51
2018-06-11T08:38:01.799Z,933.49
2018-06-11T08:39:01.807Z,933.48
2018-06-11T08:40:01.823Z,933.49
2018-06-11T08:41:01.838Z,933.43
2018-06-11T08:42:01.856Z,933.42
2018-06-11T08:43:01.870Z,933.44
2018-06-11T08:44:01.894Z,933.40
2018-06-11T08:45:01.905Z,933.37
2018-06-11T08:46:01.922Z,933.40
2018-06-11T08:47:01.937Z,933.42
2018-06-11T08:48:02.013Z,933.43
2018-06-11T08:49:02.017Z,933.47
2018-06-11T08:50:02.105Z,933.46
2018-06-11T08:51:02.002Z,933.47
2018-06-11T08:52:02.021Z,933.44
2018-06-11T08:53:02.037Z,933.48
2018-06-11T08:54:02.054Z,933.41
2018-06-11T08:55:02.071Z,933.38
2018-06-11T08:56:02.088Z,933.38
2018-06-11T08:57:02.103Z,933.36
2018-06-11T08:58:02.313Z,933.41
2018-06-11T08:59:02.134Z,933.36
2018-06-11T09:00:02.559Z,933.39
2018-06-11T09:01:02.169Z,933.33
2018-06-11T09:02:02.184Z,933.33
2018-06-11T09:03:02.201Z,933.32
2018-06-11T09:04:02.215Z,933.30
2018-06-11T09:05:02.234Z,933.28
2018-06-11T09:06:02.525Z,933.25
2018-06-11T09:07:02.265Z,933.24
2018-06-11T09:08:02.284Z,933.21
2018-06-11T09:09:02.297Z,933.21
2018-06-11T09:10:02.312Z,933.17
2018-06-11T09:11:02.328Z,933.14
2018-06-11T09:12:02.345Z,933.15
2018-06-11T09:13:02.361Z,933.16
2018-06-11T09:14:02.377Z,933.15
2018-06-11T09:15:02.394Z,933.18
2018-06-11T09:16:02.408Z,933.21
2018-06-11T09:17:02.426Z,933.16
2018-06-11T09:18:02.493Z,933.17
2018-06-11T09:19:02.457Z,933.17
2018-06-11T09:20:02.474Z,933.16
2018-06-11T09:21:02.491Z,933.18
2018-06-11T09:22:02.509Z,933.19
2018-06-11T09:23:02.528Z,933.14
2018-06-11T09:24:02.542Z,933.11
2018-06-11T09:25:02.663Z,933.05
2018-06-11T09:26:02.576Z,933.04
2018-06-11T09:27:02.591Z,932.98
2018-06-11T09:28:02.608Z,933.00
2018-06-11T09:29:02.624Z,932.97
2018-06-11T09:30:02.906Z,932.99
2018-06-11T09:31:02.907Z,933.00
2018-06-11T09:32:02.936Z,933.00
2018-06-11T09:33:02.972Z,933.01
2018-06-11T09:34:02.708Z,933.02
2018-06-11T09:35:02.724Z,932.98
2018-06-11T09:36:02.741Z,932.98
2018-06-11T09:37:02.757Z,932.98
2018-06-11T09:38:02.773Z,932.95
2018-06-11T09:39:02.792Z,932.93
2018-06-11T09:40:02.804Z,932.90
2018-06-11T09:41:02.820Z,932.94
2018-06-11T09:42:02.837Z,932.88
2018-06-11T09:43:02.852Z,932.86
2018-06-11T09:44:02.889Z,932.86
2018-06-11T09:45:02.886Z,932.84
2018-06-11T09:46:02.901Z,932.82
2018-06-11T09:47:02.915Z,932.76
2018-06-11T09:48:02.931Z,932.74
2018-06-11T09:49:02.949Z,932.75
2018-06-11T09:50:02.963Z,932.75
2018-06-11T09:51:02.979Z,932.78
2018-06-11T09:52:02.994Z,932.79
2018-06-11T09:53:03.011Z,932.82
2018-06-11T09:54:03.025Z,932.81
2018-06-11T09:55:03.051Z,932.83
2018-06-11T09:56:03.057Z,932.78
2018-06-11T09:57:03.075Z,932.81
2018-06-11T09:58:03.087Z,932.77
2018-06-11T09:59:03.103Z,932.80
2018-06-11T10:00:03.118Z,932.79
2018-06-11T10:01:03.230Z,932.76
2018-06-11T10:02:03.214Z,932.79
2018-06-11T10:03:03.192Z,932.81
2018-06-11T10:04:03.261Z,932.80
2018-06-11T10:05:03.262Z,932.77
2018-06-11T10:06:03.213Z,932.82
2018-06-11T10:07:03.226Z,932.84
2018-06-11T10:08:03.244Z,932.84
2018-06-11T10:09:03.320Z,932.86
2018-06-11T10:10:03.274Z,932.80
2018-06-11T10:11:03.288Z,932.72
2018-06-11T10:12:03.304Z,932.76
2018-06-11T10:13:03.320Z,932.74
2018-06-11T10:14:03.336Z,932.77
2018-06-11T10:15:03.631Z,932.79
2018-06-11T10:16:03.364Z,932.78
2018-06-11T10:17:03.380Z,932.74
2018-06-11T10:18:03.396Z,932.71
2018-06-11T10:19:03.444Z,932.77
2018-06-11T10:20:03.539Z,932.75
2018-06-11T10:21:03.442Z,932.71
2018-06-11T10:22:03.454Z,932.69
2018-06-11T10:23:03.470Z,932.72
2018-06-11T10:24:03.602Z,932.76
2018-06-11T10:25:03.495Z,932.74
2018-06-11T10:26:03.512Z,932.75
2018-06-11T10:27:03.728Z,932.75
2018-06-11T10:28:03.538Z,932.76
2018-06-11T10:29:03.553Z,932.71
2018-06-11T10:30:03.567Z,932.78
2018-06-11T10:31:03.580Z,932.73
2018-06-11T10:32:03.595Z,932.74
2018-06-11T10:33:03.611Z,932.72
2018-06-11T10:34:03.624Z,932.67
2018-06-11T10:35:03.785Z,932.66
2018-06-11T10:36:03.653Z,932.66
2018-06-11T10:37:03.669Z,932.65
2018-06-11T10:38:03.685Z,932.69
2018-06-11T10:39:03.919Z,932.65
2018-06-11T10:40:03.715Z,932.62
2018-06-11T10:41:03.727Z,932.64
2018-06-11T10:42:03.743Z,932.56
2018-06-11T10:43:03.775Z,932.56
2018-06-11T10:44:03.774Z,932.49
2018-06-11T10:45:03.799Z,932.49
2018-06-11T10:46:03.802Z,932.49
2018-06-11T10:47:03.820Z,932.49
2018-06-11T10:48:03.833Z,932.48
2018-06-11T10:49:03.848Z,932.46
2018-06-11T10:50:03.873Z,932.45
2018-06-11T10:51:03.877Z,932.42
2018-06-11T10:52:03.894Z,932.42
2018-06-11T10:53:03.909Z,932.45
2018-06-11T10:54:03.925Z,932.39
2018-06-11T10:55:03.937Z,932.37
2018-06-11T10:56:03.953Z,932.37
2018-06-11T10:57:03.969Z,932.36
2018-06-11T10:58:04.053Z,932.28
2018-06-11T10:59:04.060Z,932.27
2018-06-11T11:00:04.136Z,932.23
2018-06-11T11:01:04.028Z,932.19
2018-06-11T11:02:04.040Z,932.16
2018-06-11T11:03:04.053Z,932.17
2018-06-11T11:04:04.067Z,932.14
2018-06-11T11:05:04.082Z,932.14
2018-06-11T11:06:04.097Z,932.13
2018-06-11T11:07:04.109Z,932.05
2018-06-11T11:08:04.227Z,932.06
2018-06-11T11:09:04.138Z,932.07
2018-06-11T11:10:04.157Z,932.02
2018-06-11T11:11:04.167Z,931.99
2018-06-11T11:12:04.182Z,931.92
2018-06-11T11:13:04.213Z,931.87
2018-06-11T11:14:04.210Z,931.83
2018-06-11T11:15:04.335Z,931.82
2018-06-11T11:16:04.237Z,931.82
2018-06-11T11:17:04.255Z,931.81
2018-06-11T11:18:04.267Z,931.75
2018-06-11T11:19:04.278Z,931.74
2018-06-11T11:20:04.293Z,931.74
2018-06-11T11:21:04.435Z,931.76
2018-06-11T11:22:04.321Z,931.78
2018-06-11T11:23:04.334Z,931.79
2018-06-11T11:24:04.445Z,931.79
2018-06-11T11:25:04.362Z,931.79
2018-06-11T11:26:04.440Z,931.76
2018-06-11T11:27:04.390Z,931.74
2018-06-11T11:28:04.404Z,931.70
2018-06-11T11:29:04.417Z,931.66
2018-06-11T11:30:04.431Z,931.64
2018-06-11T11:31:04.443Z,931.59
2018-06-11T11:32:04.456Z,931.60
2018-06-11T11:33:04.476Z,931.59
2018-06-11T11:34:04.482Z,931.60
2018-06-11T11:35:04.496Z,931.61
2018-06-11T11:36:04.508Z,931.57
2018-06-11T11:37:04.522Z,931.51
2018-06-11T11:38:04.736Z,931.55
2018-06-11T11:39:04.673Z,931.51
2018-06-11T11:40:05.082Z,931.51
2018-06-11T11:41:04.574Z,931.50
2018-06-11T11:42:04.586Z,931.51
2018-06-11T11:43:04.598Z,931.50
2018-06-11T11:44:04.611Z,931.47
2018-06-11T11:45:05.268Z,931.45
2018-06-11T11:46:04.638Z,931.44
2018-06-11T11:47:04.649Z,931.42
2018-06-11T11:48:04.922Z,931.41
2018-06-11T11:49:04.796Z,931.41
2018-06-11T11:50:04.687Z,931.41
2018-06-11T11:51:04.725Z,931.36
2018-06-11T11:52:04.712Z,931.33
2018-06-11T11:53:04.723Z,931.31
2018-06-11T11:54:04.737Z,931.27
2018-06-11T11:55:04.749Z,931.25
2018-06-11T11:56:04.764Z,931.25
2018-06-11T11:57:04.774Z,931.22
2018-06-11T11:58:04.785Z,931.24
2018-06-11T11:59:04.796Z,931.21
2018-06-11T12:00:04.816Z,931.23
2018-06-11T12:01:04.844Z,931.23
2018-06-11T12:02:04.833Z,931.21
2018-06-11T12:03:04.843Z,931.19
2018-06-11T12:04:04.855Z,931.18
2018-06-11T12:05:04.868Z,931.21
2018-06-11T12:06:05.179Z,931.19
2018-06-11T12:07:04.889Z,931.20
2018-06-11T12:08:04.902Z,931.18
2018-06-11T12:09:04.912Z,931.14
2018-06-11T12:10:04.925Z,931.16
2018-06-11T12:11:04.935Z,931.08
2018-06-11T12:12:05.060Z,931.01
2018-06-11T12:13:05.105Z,930.95
2018-06-11T12:14:04.971Z,930.93
2018-06-11T12:15:04.979Z,930.89
2018-06-11T12:16:04.988Z,930.90
2018-06-11T12:17:05.124Z,930.92
2018-06-11T12:18:05.264Z,930.90
2018-06-11T12:19:05.134Z,930.90
2018-06-11T12:20:05.031Z,930.96
2018-06-11T12:21:05.041Z,930.95
2018-06-11T12:22:05.052Z,930.93
2018-06-11T12:23:05.063Z,930.92
2018-06-11T12:24:05.074Z,930.91
2018-06-11T12:25:05.090Z,930.90
2018-06-11T12:26:05.534Z,930.92
2018-06-11T12:27:05.102Z,930.95
2018-06-11T12:28:05.119Z,931.00
2018-06-11T12:29:05.123Z,931.00
2018-06-11T12:30:05.135Z,931.07
2018-06-11T12:31:05.219Z,931.10